Time;durP1;ratioP1;P1;durP2;ratioP2;P2;SDS_P1;SDS_P2;PMS_P1;PMS_P2;Temp;Humidity;BMP_temperature;BMP_pressure;BME280_temperature;BME280_humidity;BME280_pressure;Samples;Min_cycle;Max_cycle;Signal;HPM_P1;HPM_P2
2022/10/29 00:00:35;;;;;;;16.88;4.28;;;;;;;21.75;50.86;101640.25;4930065;28;97785;-69
2022/10/29 00:03:02;;;;;;;13.25;4.35;;;;;;;21.68;51.25;101644.31;4931499;28;101822;-70
2022/10/29 00:05:30;;;;;;;14.95;3.97;;;;;;;21.58;51.88;101648.63;4931667;28;97239;-70
2022/10/29 00:07:56;;;;;;;12.98;4.22;;;;;;;21.74;51.45;101646.59;4932135;28;96853;-70
2022/10/29 00:10:23;;;;;;;18.48;4.20;;;;;;;21.50;52.01;101636.63;4929274;28;98886;-70
2022/10/29 00:12:50;;;;;;;21.15;4.35;;;;;;;21.55;51.75;101646.13;4932680;28;99023;-70
2022/10/29 00:15:17;;;;;;;24.17;3.97;;;;;;;21.42;52.00;101653.28;4929667;28;97542;-71
2022/10/29 00:17:43;;;;;;;27.58;3.88;;;;;;;21.64;51.91;101645.50;4930911;28;97280;-70
2022/10/29 00:20:10;;;;;;;12.43;3.40;;;;;;;21.56;52.20;101650.53;4931408;28;99002;-72
2022/10/29 00:22:38;;;;;;;19.70;4.38;;;;;;;21.67;51.92;101647.09;4930820;28;99059;-69
2022/10/29 00:25:05;;;;;;;19.35;3.65;;;;;;;21.51;52.13;101647.28;4931322;28;98963;-70
2022/10/29 00:27:32;;;;;;;13.73;4.28;;;;;;;21.56;52.11;101649.66;4929738;28;98521;-70
2022/10/29 00:29:58;;;;;;;20.05;4.25;;;;;;;21.46;52.43;101654.81;4930638;28;99275;-71
2022/10/29 00:32:25;;;;;;;18.08;4.25;;;;;;;21.56;52.22;101655.03;4933503;28;98113;-73
2022/10/29 00:34:52;;;;;;;22.95;4.53;;;;;;;21.57;52.24;101660.31;4929885;28;97237;-72
2022/10/29 00:37:18;;;;;;;13.13;4.07;;;;;;;21.64;52.04;101666.16;4931754;28;97164;-72
2022/10/29 00:39:46;;;;;;;14.45;3.92;;;;;;;21.58;52.33;101678.19;4931423;28;99388;-72
2022/10/29 00:42:14;;;;;;;20.48;4.60;;;;;;;21.59;52.20;101693.38;4932165;28;99084;-72
2022/10/29 00:44:42;;;;;;;22.90;4.50;;;;;;;21.54;52.66;101695.47;4930366;28;96817;-71
2022/10/29 00:47:20;;;;;;;18.08;4.43;;;;;;;21.48;52.79;101695.88;4930516;28;97662;-71
2022/10/29 00:49:51;;;;;;;13.18;4.32;;;;;;;21.35;53.38;101690.44;4930769;28;98919;-72
2022/10/29 00:52:22;;;;;;;22.15;4.65;;;;;;;21.34;53.48;101680.66;4928449;28;101904;-73
2022/10/29 00:54:51;;;;;;;18.08;4.10;;;;;;;21.27;53.51;101678.47;4930485;28;99369;-72
2022/10/29 00:57:21;;;;;;;14.82;4.55;;;;;;;21.30;53.48;101679.16;4931727;28;97652;-72
2022/10/29 00:59:49;;;;;;;24.52;4.15;;;;;;;21.19;54.30;101679.00;4930540;28;98500;-71
2022/10/29 01:02:15;;;;;;;23.73;5.05;;;;;;;21.11;54.32;101670.53;4926854;28;98803;-72
2022/10/29 01:04:43;;;;;;;29.05;4.18;;;;;;;21.13;54.28;101663.25;4927889;28;98504;-72
2022/10/29 01:07:10;;;;;;;19.35;4.75;;;;;;;21.27;54.44;101665.03;4931111;28;99083;-71
2022/10/29 01:09:37;;;;;;;22.08;4.32;;;;;;;21.27;54.02;101667.72;4931656;28;98992;-72
2022/10/29 01:12:18;;;;;;;20.73;4.63;;;;;;;21.35;54.01;101674.31;4940567;28;99154;-72
2022/10/29 01:14:53;;;;;;;13.40;3.97;;;;;;;21.44;54.04;101673.72;4931078;28;97487;-71
2022/10/29 01:17:27;;;;;;;17.92;4.00;;;;;;;21.39;53.95;101680.38;4930719;28;97310;-72
2022/10/29 01:20:16;;;;;;;17.98;4.80;;;;;;;21.13;54.67;101678.50;4923602;28;99732;-73
2022/10/29 01:22:49;;;;;;;20.85;5.13;;;;;;;21.30;54.28;101675.59;4927359;28;100667;-72
2022/10/29 01:25:36;;;;;;;21.63;4.68;;;;;;;21.26;54.53;101676.78;4929167;28;97206;-72
2022/10/29 01:28:19;;;;;;;13.77;4.55;;;;;;;21.30;54.54;101670.22;4928365;28;98681;-72
2022/10/29 01:30:57;;;;;;;16.35;4.18;;;;;;;21.39;54.28;101675.00;4930377;28;98903;-71
2022/10/29 01:33:32;;;;;;;14.70;4.45;;;;;;;21.30;54.80;101678.28;4927333;28;98562;-71
2022/10/29 01:36:07;;;;;;;13.87;4.80;;;;;;;21.24;55.09;101676.88;4928614;28;97045;-71
2022/10/29 01:38:38;;;;;;;21.20;4.80;;;;;;;21.33;54.58;101675.41;4929754;28;97228;-73
2022/10/29 01:41:13;;;;;;;19.95;4.93;;;;;;;21.39;54.37;101686.63;4930290;28;99573;-72
2022/10/29 01:43:45;;;;;;;19.67;4.72;;;;;;;21.35;54.89;101684.22;4928999;28;98709;-72
2022/10/29 01:46:19;;;;;;;17.45;5.13;;;;;;;21.27;55.08;101687.41;4928824;28;96911;-72
2022/10/29 01:48:48;;;;;;;16.17;4.43;;;;;;;21.24;55.02;101690.31;4931484;28;97202;-73
2022/10/29 01:51:21;;;;;;;23.95;4.68;;;;;;;21.33;55.12;101692.38;4930878;28;99209;-72
2022/10/29 01:53:49;;;;;;;19.92;4.97;;;;;;;21.22;55.44;101699.41;4930845;28;98887;-73
2022/10/29 01:56:15;;;;;;;23.48;5.32;;;;;;;21.03;56.12;101687.13;4928014;28;97131;-72
2022/10/29 01:58:46;;;;;;;14.55;4.90;;;;;;;21.02;56.34;101701.53;4932178;28;96829;-72
2022/10/29 02:01:25;;;;;;;13.43;4.88;;;;;;;20.82;57.04;101696.56;4930574;28;97839;-72
2022/10/29 02:04:01;;;;;;;16.42;5.45;;;;;;;20.98;56.76;101701.84;4929035;28;98725;-72
2022/10/29 02:06:36;;;;;;;20.30;4.77;;;;;;;21.05;56.32;101706.72;4931299;28;97417;-72
2022/10/29 02:09:09;;;;;;;22.10;5.10;;;;;;;21.02;56.51;101704.22;4930037;28;96931;-72
2022/10/29 02:11:46;;;;;;;19.35;5.70;;;;;;;20.97;56.94;101702.78;4930882;28;98991;-72
2022/10/29 02:14:19;;;;;;;18.95;5.22;;;;;;;21.16;56.25;101700.69;4928388;28;100830;-71
2022/10/29 02:16:48;;;;;;;15.25;5.10;;;;;;;21.08;56.64;101701.13;4930574;28;97142;-72
2022/10/29 02:19:14;;;;;;;17.20;4.63;;;;;;;21.17;56.40;101701.53;4932175;28;97434;-72
2022/10/29 02:21:43;;;;;;;20.55;5.25;;;;;;;20.65;57.82;101705.69;4930128;28;99227;-72
2022/10/29 02:24:09;;;;;;;18.23;5.55;;;;;;;20.92;57.34;101715.66;4926637;28;99131;-72
2022/10/29 02:26:36;;;;;;;14.07;4.85;;;;;;;20.82;57.79;101720.75;4929271;28;97709;-72
2022/10/29 02:29:02;;;;;;;24.23;5.68;;;;;;;20.92;57.43;101719.22;4926263;28;96983;-73
2022/10/29 02:31:29;;;;;;;18.63;5.50;;;;;;;20.82;57.64;101722.56;4933015;28;97893;-72
2022/10/29 02:33:57;;;;;;;18.00;5.03;;;;;;;20.89;57.92;101732.81;4933008;28;99163;-71
2022/10/29 02:36:23;;;;;;;20.10;5.85;;;;;;;21.02;57.40;101736.47;4934110;28;97050;-72
2022/10/29 02:38:50;;;;;;;16.00;4.53;;;;;;;20.97;57.23;101735.91;4933641;28;97337;-72
2022/10/29 02:41:16;;;;;;;15.88;5.60;;;;;;;20.95;57.21;101729.75;4936364;28;97870;-71
2022/10/29 02:43:43;;;;;;;18.42;5.05;;;;;;;20.94;57.44;101735.22;4932014;28;101438;-71
2022/10/29 02:46:11;;;;;;;21.30;5.97;;;;;;;21.09;56.82;101743.19;4932104;28;96867;-71
2022/10/29 02:48:37;;;;;;;20.05;5.57;;;;;;;21.01;57.15;101729.34;4931196;28;98413;-71
2022/10/29 02:51:05;;;;;;;11.27;4.65;;;;;;;20.80;57.81;101736.13;4931397;28;99319;-71
2022/10/29 02:53:32;;;;;;;26.65;5.88;;;;;;;21.15;56.71;101741.91;4930809;28;97522;-71
2022/10/29 02:55:58;;;;;;;29.40;5.55;;;;;;;21.06;56.90;101739.84;4931170;28;96945;-72
2022/10/29 02:58:25;;;;;;;21.27;4.75;;;;;;;21.09;56.91;101743.19;4935127;28;96909;-72
2022/10/29 03:00:52;;;;;;;18.63;5.15;;;;;;;21.09;56.81;101743.19;4935048;28;98671;-72
2022/10/29 03:03:18;;;;;;;19.27;5.53;;;;;;;21.14;56.46;101737.50;4932535;28;97827;-71
2022/10/29 03:05:45;;;;;;;22.05;4.93;;;;;;;20.91;57.22;101736.28;4931748;28;97976;-70
2022/10/29 03:08:13;;;;;;;15.68;4.97;;;;;;;20.95;57.16;101737.81;4936727;28;96987;-71
2022/10/29 03:10:40;;;;;;;18.67;5.18;;;;;;;20.80;57.79;101735.25;4936349;28;98988;-71
2022/10/29 03:13:07;;;;;;;20.75;5.65;;;;;;;20.79;57.69;101737.06;4932277;28;99169;-70
2022/10/29 03:15:33;;;;;;;17.92;5.60;;;;;;;20.98;57.24;101728.72;4933327;28;96804;-71
2022/10/29 03:18:00;;;;;;;21.33;5.03;;;;;;;20.66;58.15;101745.03;4927172;28;96873;-71
2022/10/29 03:20:26;;;;;;;19.83;5.35;;;;;;;20.83;57.50;101737.72;4932456;28;99022;-72
2022/10/29 03:22:54;;;;;;;21.08;5.45;;;;;;;20.80;57.88;101736.13;4933300;28;96788;-71
2022/10/29 03:25:22;;;;;;;25.35;5.97;;;;;;;20.80;57.80;101735.25;4932527;28;97214;-71
2022/10/29 03:27:48;;;;;;;17.15;5.55;;;;;;;20.92;57.29;101735.34;4932988;28;96937;-71
2022/10/29 03:30:17;;;;;;;23.38;5.72;;;;;;;20.75;58.02;101732.81;4928641;28;99125;-70
2022/10/29 03:32:44;;;;;;;19.80;5.80;;;;;;;20.75;57.74;101730.13;4933860;28;97733;-71
2022/10/29 03:35:12;;;;;;;20.77;5.38;;;;;;;20.92;57.82;101739.84;4930724;28;98479;-70
2022/10/29 03:37:39;;;;;;;23.65;5.50;;;;;;;20.80;57.96;101740.63;4932367;28;96936;-71
2022/10/29 03:40:08;;;;;;;22.63;5.70;;;;;;;20.68;58.18;101743.09;4932774;28;98167;-70
2022/10/29 03:42:37;;;;;;;15.15;5.55;;;;;;;20.86;57.77;101746.47;4933788;28;98828;-70
2022/10/29 03:45:04;;;;;;;28.50;5.78;;;;;;;20.72;58.25;101741.09;4934412;28;97500;-70
2022/10/29 03:47:32;;;;;;;20.40;5.20;;;;;;;20.72;58.23;101749.16;4929686;28;98368;-72
2022/10/29 03:49:59;;;;;;;19.45;5.90;;;;;;;20.54;59.13;101752.97;4927376;28;99141;-71
2022/10/29 03:52:25;;;;;;;22.63;6.18;;;;;;;20.61;59.10;101752.47;4930801;28;98360;-71
2022/10/29 03:54:52;;;;;;;25.70;5.70;;;;;;;20.63;58.65;101752.38;4931232;28;98859;-71
2022/10/29 03:57:19;;;;;;;24.30;6.05;;;;;;;20.59;58.64;101748.19;4932435;28;98921;-71
2022/10/29 03:59:47;;;;;;;24.05;5.90;;;;;;;20.77;58.45;101752.41;4934495;28;102356;-71
2022/10/29 04:02:13;;;;;;;18.05;5.32;;;;;;;20.65;58.96;101748.66;4932332;28;98815;-71
2022/10/29 04:04:40;;;;;;;21.52;6.50;;;;;;;20.42;59.31;101754.56;4929432;28;98601;-72
2022/10/29 04:07:06;;;;;;;16.77;5.88;;;;;;;20.38;59.45;101755.72;4934104;28;97021;-71
2022/10/29 04:09:32;;;;;;;26.17;6.15;;;;;;;20.20;60.22;101771.06;4931176;28;99074;-71
2022/10/29 04:11:59;;;;;;;13.57;5.50;;;;;;;20.13;60.64;101768.84;4933313;28;98963;-70
2022/10/29 04:14:26;;;;;;;20.48;5.97;;;;;;;20.39;59.28;101761.94;4928384;28;97539;-71
2022/10/29 04:16:54;;;;;;;19.88;5.70;;;;;;;20.47;59.24;101770.41;4930500;28;97131;-71
2022/10/29 04:19:20;;;;;;;16.90;5.93;;;;;;;20.49;59.07;101765.78;4930830;28;98762;-70
2022/10/29 04:21:46;;;;;;;20.25;5.57;;;;;;;20.27;59.81;101768.88;4929680;28;99161;-72
2022/10/29 04:24:13;;;;;;;17.90;5.97;;;;;;;20.58;58.97;101765.25;4929221;28;98601;-71
2022/10/29 04:26:41;;;;;;;22.55;5.78;;;;;;;20.43;59.51;101767.03;4931593;28;96892;-70
2022/10/29 04:29:08;;;;;;;24.27;6.22;;;;;;;20.65;58.62;101764.78;4930454;28;97921;-71
2022/10/29 04:31:34;;;;;;;19.75;5.60;;;;;;;20.48;59.27;101767.59;4929550;28;99101;-71
2022/10/29 04:34:02;;;;;;;28.05;6.57;;;;;;;20.72;58.77;101762.56;4930598;28;96875;-71
2022/10/29 04:36:29;;;;;;;18.92;5.40;;;;;;;20.49;59.47;101760.41;4933136;28;97023;-72
2022/10/29 04:38:55;;;;;;;19.13;5.85;;;;;;;20.35;59.60;101763.94;4930076;28;99315;-71
2022/10/29 04:41:21;;;;;;;18.85;5.97;;;;;;;20.36;59.72;101752.25;4932453;28;99008;-71
2022/10/29 04:43:48;;;;;;;30.52;6.60;;;;;;;20.39;59.61;101751.22;4929598;28;96776;-71
2022/10/29 04:46:14;;;;;;;25.98;5.97;;;;;;;20.36;59.46;101748.69;4931637;28;97123;-72
2022/10/29 04:48:41;;;;;;;17.60;6.55;;;;;;;20.48;59.18;101738.06;4930652;28;100652;-71
2022/10/29 04:51:19;;;;;;;22.42;6.40;;;;;;;20.65;59.13;101737.91;4929714;28;98672;-72
2022/10/29 04:53:45;;;;;;;19.92;6.63;;;;;;;20.48;59.45;101740.75;4923777;28;97195;-71
2022/10/29 04:56:12;;;;;;;19.55;6.53;;;;;;;20.67;58.85;101740.53;4927502;28;97572;-72
2022/10/29 04:58:38;;;;;;;16.13;6.15;;;;;;;20.50;59.48;101765.69;4930092;28;98931;-71
2022/10/29 05:01:05;;;;;;;18.98;5.65;;;;;;;20.51;59.07;101766.56;4930772;28;99067;-71
2022/10/29 05:03:31;;;;;;;19.73;6.32;;;;;;;20.25;60.11;101760.06;4929365;28;96929;-71
2022/10/29 05:05:58;;;;;;;19.10;6.30;;;;;;;20.19;60.51;101766.66;4930496;28;98385;-71
2022/10/29 05:08:26;;;;;;;15.73;5.80;;;;;;;20.25;60.31;101770.78;4931696;28;100884;-72
2022/10/29 05:10:52;;;;;;;22.73;6.07;;;;;;;20.56;59.19;101773.38;4928281;28;99070;-72
2022/10/29 05:13:19;;;;;;;24.90;6.30;;;;;;;20.41;59.74;101777.03;4928209;28;97737;-72
2022/10/29 05:15:50;;;;;;;28.02;5.95;;;;;;;20.41;59.86;101777.03;4925521;28;97226;-73
2022/10/29 05:18:16;;;;;;;20.73;6.15;;;;;;;20.45;59.71;101772.31;4929381;28;98217;-73
2022/10/29 05:20:43;;;;;;;21.52;5.68;;;;;;;20.27;60.18;101788.53;4929487;28;100334;-74
2022/10/29 05:23:11;;;;;;;14.02;6.22;;;;;;;20.10;60.66;101775.25;4930257;28;97665;-72
2022/10/29 05:25:41;;;;;;;17.58;6.00;;;;;;;20.26;60.37;101773.38;4931344;28;97166;-73
2022/10/29 05:28:12;;;;;;;17.67;6.40;;;;;;;20.19;60.02;101774.72;4924851;28;99086;-72
2022/10/29 05:30:38;;;;;;;19.33;6.18;;;;;;;20.37;60.00;101783.50;4925668;28;96904;-72
2022/10/29 05:33:06;;;;;;;21.02;6.50;;;;;;;20.09;60.54;101781.56;4926749;28;97474;-73
2022/10/29 05:35:33;;;;;;;23.77;6.55;;;;;;;20.21;60.31;101788.03;4922217;28;99292;-72
2022/10/29 05:37:59;;;;;;;18.30;6.72;;;;;;;20.22;60.34;101784.38;4927050;28;98164;-71
2022/10/29 05:40:26;;;;;;;17.50;6.10;;;;;;;20.23;60.44;101778.94;4927998;28;98891;-72
2022/10/29 05:42:54;;;;;;;27.60;6.32;;;;;;;19.92;61.42;101768.28;4926684;28;97731;-72
2022/10/29 05:45:21;;;;;;;16.48;5.78;;;;;;;20.03;61.43;101768.50;4927168;28;99699;-72
2022/10/29 05:47:47;;;;;;;17.63;6.40;;;;;;;20.20;60.95;101763.03;4927513;28;100532;-72
2022/10/29 05:50:14;;;;;;;24.83;6.53;;;;;;;20.25;60.25;101747.50;4926300;28;101059;-72
2022/10/29 05:52:41;;;;;;;30.15;7.20;;;;;;;20.24;60.48;101747.59;4926857;28;97936;-73
2022/10/29 05:55:08;;;;;;;20.25;6.30;;;;;;;20.19;60.54;101747.88;4924737;28;97156;-72
2022/10/29 05:57:35;;;;;;;17.85;5.65;;;;;;;20.16;60.48;101758.78;4930669;28;98914;-72
2022/10/29 06:00:04;;;;;;;23.05;6.50;;;;;;;20.13;60.77;101756.28;4923934;28;99191;-72
2022/10/29 06:02:30;;;;;;;19.38;5.78;;;;;;;19.82;61.79;101761.72;4926071;28;96992;-72
2022/10/29 06:04:57;;;;;;;21.40;7.07;;;;;;;19.86;62.01;101776.69;4929257;28;96982;-72
2022/10/29 06:07:23;;;;;;;23.13;5.97;;;;;;;20.01;61.38;101777.63;4934237;28;100568;-72
2022/10/29 06:09:50;;;;;;;17.42;5.43;;;;;;;20.04;61.29;101777.41;4928115;28;98805;-72
2022/10/29 06:12:16;;;;;;;20.30;7.07;;;;;;;19.90;61.77;101783.59;4929235;28;99004;-71
2022/10/29 06:14:43;;;;;;;13.93;6.25;;;;;;;19.86;61.81;101785.59;4928854;28;96998;-71
2022/10/29 06:17:10;;;;;;;18.95;5.65;;;;;;;19.91;61.86;101782.63;4928473;28;98980;-72
2022/10/29 06:19:37;;;;;;;16.92;6.40;;;;;;;19.88;62.13;101774.78;4927266;28;102365;-72
2022/10/29 06:22:04;;;;;;;16.90;6.60;;;;;;;19.81;61.96;101776.09;4930444;28;96973;-72
2022/10/29 06:24:31;;;;;;;16.30;5.53;;;;;;;19.90;62.17;101780.91;4928950;28;98650;-71
2022/10/29 06:26:57;;;;;;;17.20;5.65;;;;;;;19.82;62.24;101791.25;4933547;28;99300;-72
2022/10/29 06:29:23;;;;;;;21.67;6.25;;;;;;;19.86;61.73;101795.47;4930924;28;99161;-72
2022/10/29 06:31:50;;;;;;;17.85;6.38;;;;;;;19.93;61.79;101796.84;4927660;28;98304;-72
2022/10/29 06:34:18;;;;;;;16.17;5.97;;;;;;;20.01;61.35;101804.44;4923470;28;97523;-72
2022/10/29 06:36:44;;;;;;;21.45;6.50;;;;;;;19.92;61.74;101803.16;4930028;28;98358;-72
2022/10/29 06:39:10;;;;;;;19.90;6.15;;;;;;;19.98;61.69;101804.59;4927603;28;98790;-72
2022/10/29 06:41:37;;;;;;;20.05;6.05;;;;;;;19.75;62.04;101805.94;4927008;28;96984;-72
2022/10/29 06:44:05;;;;;;;21.05;6.25;;;;;;;20.15;60.88;101802.66;4928992;28;97026;-72
2022/10/29 06:46:33;;;;;;;17.83;6.38;;;;;;;20.04;61.24;101797.06;4927643;28;99471;-72
2022/10/29 06:48:59;;;;;;;21.67;5.53;;;;;;;20.22;60.92;101804.03;4926764;28;98810;-72
2022/10/29 06:51:27;;;;;;;19.67;5.95;;;;;;;20.09;61.46;101815.56;4929096;28;97654;-72
2022/10/29 06:53:53;;;;;;;24.73;6.53;;;;;;;20.13;61.22;101806.41;4929351;28;97191;-72
2022/10/29 06:56:20;;;;;;;12.63;5.70;;;;;;;20.11;61.35;101811.00;4927644;28;100206;-72
2022/10/29 06:58:46;;;;;;;22.65;6.38;;;;;;;20.32;60.92;101809.72;4930074;28;97315;-73
2022/10/29 07:01:13;;;;;;;18.73;6.28;;;;;;;20.20;60.77;101810.47;4929526;28;98817;-72
2022/10/29 07:03:40;;;;;;;22.33;5.82;;;;;;;20.13;61.11;101819.81;4931015;28;98736;-72
2022/10/29 07:06:07;;;;;;;19.33;6.25;;;;;;;20.18;60.92;101817.72;4930986;28;97087;-73
2022/10/29 07:08:35;;;;;;;12.70;5.43;;;;;;;20.42;60.45;101819.00;4928228;28;98922;-72
2022/10/29 07:11:03;;;;;;;19.23;6.45;;;;;;;20.48;60.09;101809.72;4928044;28;97848;-73
2022/10/29 07:13:29;;;;;;;19.90;5.63;;;;;;;20.48;60.14;101807.88;4937814;28;97439;-72
2022/10/29 07:15:56;;;;;;;19.48;5.72;;;;;;;20.64;59.37;101806.00;4934536;28;100943;-72
2022/10/29 07:18:22;;;;;;;21.40;5.88;;;;;;;20.54;60.02;101818.28;4933506;28;99908;-73
2022/10/29 07:20:49;;;;;;;23.70;6.35;;;;;;;20.47;59.96;101814.22;4933113;28;97719;-72
2022/10/29 07:23:15;;;;;;;30.25;6.43;;;;;;;20.56;59.85;101824.41;4928314;28;99091;-73
2022/10/29 07:25:43;;;;;;;20.83;6.20;;;;;;;20.74;59.30;101827.81;4927513;28;99322;-73
2022/10/29 07:28:12;;;;;;;16.65;6.68;;;;;;;20.92;59.04;101832.06;4929719;28;98599;-73
2022/10/29 07:30:39;;;;;;;21.58;5.82;;;;;;;20.61;60.05;101826.81;4929149;28;98045;-73
2022/10/29 07:33:05;;;;;;;17.33;6.03;;;;;;;20.73;59.56;101833.28;4929729;28;98651;-73
2022/10/29 07:35:33;;;;;;;19.65;6.68;;;;;;;20.62;59.46;101836.59;4932366;28;99996;-73
2022/10/29 07:38:00;;;;;;;22.27;7.18;;;;;;;20.55;60.12;101848.66;4929376;28;99062;-72
2022/10/29 07:40:26;;;;;;;25.90;6.32;;;;;;;20.61;59.96;101843.78;4928361;28;98630;-73
2022/10/29 07:42:55;;;;;;;19.67;6.68;;;;;;;20.73;59.57;101850.25;4928356;28;98834;-72
2022/10/29 07:45:27;;;;;;;20.85;6.60;;;;;;;20.90;59.03;101849.22;4927405;28;99391;-74
2022/10/29 07:47:59;;;;;;;18.15;6.07;;;;;;;21.00;58.85;101848.53;4937063;28;99004;-69
2022/10/29 07:50:26;;;;;;;19.73;6.55;;;;;;;21.08;58.59;101840.00;4931824;28;96895;-70
2022/10/29 07:52:52;;;;;;;19.60;5.88;;;;;;;21.10;58.76;101838.09;4934033;28;98244;-68
2022/10/29 07:55:19;;;;;;;19.00;6.32;;;;;;;21.25;57.91;101849.75;4932248;28;98883;-69
2022/10/29 07:57:45;;;;;;;22.05;7.40;;;;;;;21.23;57.86;101851.66;4930985;28;101351;-69
2022/10/29 08:00:14;;;;;;;17.98;6.32;;;;;;;21.08;58.51;101864.19;4931137;28;96903;-70
2022/10/29 08:02:41;;;;;;;24.73;6.50;;;;;;;21.13;58.37;101848.69;4930725;28;97623;-69
2022/10/29 08:05:08;;;;;;;19.38;6.53;;;;;;;21.34;57.63;101854.53;4932477;28;102447;-69
2022/10/29 08:07:35;;;;;;;19.17;5.97;;;;;;;21.48;57.70;101855.41;4934057;28;99154;-70
2022/10/29 08:10:01;;;;;;;21.92;6.15;;;;;;;21.36;57.47;101855.31;4932445;28;98691;-70
2022/10/29 08:12:28;;;;;;;30.98;7.28;;;;;;;21.73;56.89;101851.13;4933601;28;98009;-70
2022/10/29 08:14:54;;;;;;;21.05;6.85;;;;;;;21.63;56.74;101853.56;4933404;28;99117;-70
2022/10/29 08:17:22;;;;;;;23.48;5.95;;;;;;;21.99;56.02;101852.19;4933797;28;98789;-71
2022/10/29 08:19:48;;;;;;;14.88;6.45;;;;;;;22.01;55.80;101858.31;4933912;28;101595;-70
2022/10/29 08:22:15;;;;;;;19.35;6.07;;;;;;;21.82;56.37;101851.41;4933785;28;96855;-69
2022/10/29 08:24:41;;;;;;;21.65;7.20;;;;;;;21.78;56.04;101857.97;4932975;28;100591;-70
2022/10/29 08:27:08;;;;;;;17.27;6.20;;;;;;;21.83;56.41;101858.53;4933951;28;98869;-72
2022/10/29 08:29:34;;;;;;;26.40;7.22;;;;;;;21.98;56.06;101859.38;4932957;28;97086;-69
2022/10/29 08:32:01;;;;;;;18.75;6.53;;;;;;;22.32;55.36;101855.28;4934890;28;97188;-71
2022/10/29 08:34:29;;;;;;;18.40;7.18;;;;;;;22.29;55.38;101857.34;4931903;28;99236;-72
2022/10/29 08:37:00;;;;;;;20.58;6.70;;;;;;;22.16;55.72;101855.47;4931494;28;102413;-75
2022/10/29 08:39:26;;;;;;;17.08;5.47;;;;;;;22.25;54.95;101859.41;4929481;28;97036;-74
2022/10/29 08:42:04;;;;;;;27.30;7.68;;;;;;;22.33;54.97;101854.34;4922684;28;97059;-73
2022/10/29 08:44:46;;;;;;;24.35;7.18;;;;;;;22.18;55.44;101861.63;4921492;28;101288;-73
2022/10/29 08:47:19;;;;;;;21.60;6.80;;;;;;;22.27;55.28;101857.44;4929130;28;99076;-73
2022/10/29 08:49:54;;;;;;;23.48;7.68;;;;;;;22.00;55.86;101852.06;4932569;28;96881;-72
2022/10/29 08:52:23;;;;;;;22.45;6.85;;;;;;;22.31;55.14;101861.66;4931963;28;96801;-74
2022/10/29 08:54:58;;;;;;;25.80;8.27;;;;;;;22.41;54.98;101861.91;4932562;28;99000;-74
2022/10/29 08:57:26;;;;;;;19.88;7.50;;;;;;;22.59;54.29;101864.19;4933746;28;98905;-72
2022/10/29 09:00:02;;;;;;;25.17;8.45;;;;;;;22.48;54.56;101858.69;4933407;28;96834;-73
2022/10/29 09:02:30;;;;;;;24.65;7.55;;;;;;;22.86;53.90;101866.00;4932316;28;96732;-72
2022/10/29 09:04:58;;;;;;;21.10;7.22;;;;;;;22.67;54.18;101859.16;4932176;28;99558;-73
2022/10/29 09:07:37;;;;;;;24.65;7.97;;;;;;;22.97;53.32;101863.44;4930512;28;98861;-73
2022/10/29 09:10:11;;;;;;;20.20;7.40;;;;;;;23.01;53.16;101873.03;4933387;28;96715;-73
2022/10/29 09:12:55;;;;;;;20.55;8.32;;;;;;;22.92;53.38;101870.97;4930052;28;96885;-73
2022/10/29 09:15:36;;;;;;;24.40;8.65;;;;;;;22.92;53.63;101868.28;4932784;28;99050;-73
2022/10/29 09:18:16;;;;;;;28.33;8.60;;;;;;;22.59;54.07;101864.19;4933258;28;99170;-73
2022/10/29 09:20:54;;;;;;;15.35;6.38;;;;;;;22.91;53.54;101869.22;4932963;28;97271;-73
2022/10/29 09:23:29;;;;;;;23.02;6.88;;;;;;;22.90;53.38;101872.94;4933606;28;97311;-73
2022/10/29 09:26:02;;;;;;;27.23;6.07;;;;;;;22.64;53.73;101880.06;4930129;28;99164;-72
2022/10/29 09:28:39;;;;;;;18.58;6.15;;;;;;;22.48;54.42;101874.00;4932848;28;98112;-72
2022/10/29 09:31:15;;;;;;;25.50;6.38;;;;;;;23.02;53.35;101880.16;4933279;28;97380;-72
2022/10/29 09:33:42;;;;;;;22.17;5.97;;;;;;;23.25;52.82;101881.22;4932690;28;96887;-72
2022/10/29 09:36:16;;;;;;;16.83;5.70;;;;;;;23.33;52.00;101874.31;4932936;28;97818;-74
2022/10/29 09:38:58;;;;;;;25.17;6.32;;;;;;;23.25;52.24;101876.69;4932983;28;98512;-72
2022/10/29 09:41:30;;;;;;;11.98;5.22;;;;;;;23.42;51.77;101868.28;4935444;28;96940;-74
2022/10/29 09:44:01;;;;;;;22.77;6.38;;;;;;;23.61;51.21;101870.53;4936406;28;96800;-73
2022/10/29 09:46:37;;;;;;;22.30;5.95;;;;;;;23.12;52.34;101864.19;4931562;28;100192;-73
2022/10/29 09:49:15;;;;;;;20.73;5.95;;;;;;;23.51;51.77;101865.91;4931913;28;99248;-73
2022/10/29 09:51:50;;;;;;;21.70;6.45;;;;;;;23.49;51.70;101865.16;4935990;28;96846;-73
2022/10/29 09:54:17;;;;;;;20.52;5.97;;;;;;;23.19;52.00;101858.25;4936092;28;96741;-73
2022/10/29 09:56:46;;;;;;;19.45;6.40;;;;;;;23.66;51.31;101862.09;4935665;28;98165;-72
2022/10/29 09:59:22;;;;;;;25.40;7.25;;;;;;;23.98;50.80;101848.94;4934543;28;99074;-73
2022/10/29 10:01:48;;;;;;;19.23;6.63;;;;;;;23.65;51.00;101833.38;4933803;28;97431;-73
2022/10/29 10:04:23;;;;;;;22.95;7.10;;;;;;;23.91;50.12;101840.44;4936033;28;97254;-73
2022/10/29 10:07:05;;;;;;;19.88;5.93;;;;;;;23.92;50.32;101836.75;4935873;28;99747;-74
2022/10/29 10:09:56;;;;;;;19.27;5.82;;;;;;;23.92;50.43;101838.59;4936367;28;101060;-73
2022/10/29 10:12:25;;;;;;;20.73;5.55;;;;;;;23.58;51.32;101849.16;4935906;28;96944;-72
2022/10/29 10:15:03;;;;;;;12.98;4.50;;;;;;;23.78;50.98;101839.63;4934824;28;97100;-75
2022/10/29 10:17:56;;;;;;;19.20;5.38;;;;;;;23.75;50.74;101840.72;4932315;28;99152;-73
2022/10/29 10:20:32;;;;;;;24.63;5.72;;;;;;;23.78;50.25;101840.47;4935571;28;98807;-72
2022/10/29 10:23:00;;;;;;;22.37;5.20;;;;;;;23.77;50.15;101835.19;4932508;28;97455;-73
2022/10/29 10:25:37;;;;;;;22.30;6.97;;;;;;;23.90;50.47;101830.59;4931370;28;96839;-73
2022/10/29 10:28:15;;;;;;;16.13;5.35;;;;;;;24.34;49.38;101829.16;4935351;28;99379;-72
2022/10/29 10:30:42;;;;;;;19.58;6.35;;;;;;;24.08;49.83;101820.28;4932300;28;97849;-73
2022/10/29 10:33:23;;;;;;;11.35;4.38;;;;;;;23.90;49.89;101817.09;4936208;28;96762;-73
2022/10/29 10:35:51;;;;;;;18.55;5.40;;;;;;;24.06;49.74;101806.91;4934239;28;96813;-73
2022/10/29 10:38:19;;;;;;;20.42;6.13;;;;;;;24.02;49.61;101809.94;4935233;28;99146;-73
2022/10/29 10:40:55;;;;;;;19.95;5.50;;;;;;;24.03;49.52;101807.13;4935412;28;98650;-74
2022/10/29 10:43:23;;;;;;;18.02;5.85;;;;;;;24.02;49.88;101815.34;4935001;28;96880;-74
2022/10/29 10:45:57;;;;;;;20.65;5.85;;;;;;;24.05;49.87;101812.41;4935391;28;96883;-73
2022/10/29 10:48:26;;;;;;;19.75;5.22;;;;;;;24.16;49.63;101817.84;4933998;28;101652;-73
2022/10/29 10:51:15;;;;;;;27.25;9.45;;;;;;;24.31;49.17;101821.25;4934834;28;98839;-73
2022/10/29 10:53:43;;;;;;;16.50;5.78;;;;;;;24.31;49.33;101818.56;4935588;28;96852;-72
2022/10/29 10:56:17;;;;;;;20.55;5.75;;;;;;;24.22;49.24;101818.28;4934882;28;96807;-73
2022/10/29 10:58:49;;;;;;;14.90;4.70;;;;;;;24.07;49.84;101816.72;4934739;28;99221;-73
2022/10/29 11:01:22;;;;;;;16.40;5.50;;;;;;;23.96;50.04;101827.44;4935055;28;98968;-73
2022/10/29 11:03:55;;;;;;;21.23;6.00;;;;;;;24.53;48.79;101827.63;4935529;28;96736;-73
2022/10/29 11:06:25;;;;;;;16.38;5.32;;;;;;;24.03;49.48;101820.63;4934240;28;97687;-73
2022/10/29 11:08:57;;;;;;;21.02;5.22;;;;;;;24.09;49.45;101814.75;4934075;28;99111;-73
2022/10/29 11:11:30;;;;;;;16.35;5.00;;;;;;;24.28;49.21;101805.31;4933877;28;98859;-73
2022/10/29 11:14:01;;;;;;;21.02;5.90;;;;;;;24.08;49.34;101809.50;4934771;28;96820;-73
2022/10/29 11:16:37;;;;;;;20.80;5.75;;;;;;;24.16;49.50;101801.66;4935233;28;96768;-73
2022/10/29 11:19:10;;;;;;;19.52;6.25;;;;;;;24.44;48.75;101797.75;4932048;28;99304;-73
2022/10/29 11:21:42;;;;;;;19.67;5.50;;;;;;;24.55;48.72;101786.94;4929671;28;100945;-73
2022/10/29 11:24:17;;;;;;;18.23;5.05;;;;;;;24.47;48.88;101779.47;4934087;28;97112;-73
2022/10/29 11:26:52;;;;;;;23.75;7.57;;;;;;;24.33;48.94;101786.91;4935498;28;96728;-73